Time;durP1;ratioP1;P1;durP2;ratioP2;P2;SDS_P1;SDS_P2;PMS_P1;PMS_P2;Temp;Humidity;BMP_temperature;BMP_pressure;BME280_temperature;BME280_humidity;BME280_pressure;Samples;Min_cycle;Max_cycle;Signal;HPM_P1;HPM_P2
2023/03/09 00:01:42;;;;;;;17.30;11.57;;;2.50;99.90;;;;;;5091809;28;20393;-56
2023/03/09 00:04:12;;;;;;;17.30;11.43;;;2.50;99.90;;;;;;5091713;28;20036;-56
2023/03/09 00:06:38;;;;;;;19.00;11.27;;;2.40;99.90;;;;;;5091628;28;20040;-55
2023/03/09 00:09:04;;;;;;;17.95;10.63;;;2.50;99.90;;;;;;5091372;28;20374;-56
2023/03/09 00:11:30;;;;;;;17.65;10.48;;;2.50;99.90;;;;;;5091640;28;20035;-55
2023/03/09 00:13:55;;;;;;;16.52;10.55;;;2.50;99.90;;;;;;5090214;28;20075;-55
2023/03/09 00:16:24;;;;;;;15.60;11.02;;;2.50;99.90;;;;;;5091629;28;20041;-56
2023/03/09 00:18:52;;;;;;;19.23;10.40;;;2.50;99.90;;;;;;5091286;28;20052;-55
2023/03/09 00:21:34;;;;;;;15.73;10.55;;;2.40;99.90;;;;;;5090582;28;20469;-55
2023/03/09 00:24:12;;;;;;;17.83;9.70;;;2.40;99.90;;;;;;5091755;28;20481;-56
2023/03/09 00:26:40;;;;;;;14.77;10.30;;;2.40;99.90;;;;;;5091467;28;20055;-55
2023/03/09 00:29:08;;;;;;;17.05;9.63;;;2.40;99.90;;;;;;5094001;28;20522;-56
2023/03/09 00:31:33;;;;;;;15.98;10.13;;;2.40;99.90;;;;;;5095179;28;20040;-56
2023/03/09 00:33:59;;;;;;;17.27;10.18;;;2.40;99.90;;;;;;5095263;28;20039;-56
2023/03/09 00:36:25;;;;;;;15.50;10.27;;;2.40;99.90;;;;;;5095054;28;20040;-55
2023/03/09 00:38:56;;;;;;;18.00;10.25;;;2.40;99.90;;;;;;5095265;28;20036;-56
2023/03/09 00:41:23;;;;;;;16.88;11.20;;;2.40;99.90;;;;;;5094975;28;20397;-55
2023/03/09 00:43:50;;;;;;;15.32;10.10;;;2.50;99.90;;;;;;5095004;28;20123;-56
2023/03/09 00:46:16;;;;;;;18.48;10.68;;;2.40;99.90;;;;;;5095164;28;20036;-56
2023/03/09 00:48:42;;;;;;;16.95;10.95;;;2.40;99.90;;;;;;5095067;28;20385;-56
2023/03/09 00:51:09;;;;;;;18.65;11.27;;;2.40;99.90;;;;;;5094901;28;20115;-55
2023/03/09 00:53:35;;;;;;;16.77;10.77;;;2.40;99.90;;;;;;5094842;28;20072;-56
2023/03/09 00:56:07;;;;;;;17.95;11.10;;;2.40;99.90;;;;;;5094764;28;20047;-56
2023/03/09 00:58:33;;;;;;;17.90;10.95;;;2.40;99.90;;;;;;5095074;28;20062;-56
2023/03/09 01:00:59;;;;;;;18.85;11.63;;;2.40;99.90;;;;;;5095082;28;20028;-56
2023/03/09 01:03:25;;;;;;;17.98;11.07;;;2.40;99.90;;;;;;5094812;28;20123;-56
2023/03/09 01:05:51;;;;;;;17.92;11.70;;;2.40;99.90;;;;;;5094770;28;20111;-56
2023/03/09 01:08:17;;;;;;;16.40;10.73;;;2.30;99.90;;;;;;5094604;28;20123;-56
2023/03/09 01:10:43;;;;;;;15.40;10.98;;;2.40;99.90;;;;;;5094566;28;20513;-56
2023/03/09 01:13:11;;;;;;;15.52;11.13;;;2.30;99.90;;;;;;5094666;28;20040;-55
2023/03/09 01:15:37;;;;;;;15.60;9.93;;;2.30;99.90;;;;;;5094559;28;20040;-56
2023/03/09 01:18:03;;;;;;;16.25;11.43;;;2.20;99.90;;;;;;5094102;28;20287;-55
2023/03/09 01:20:29;;;;;;;21.55;11.95;;;2.20;99.90;;;;;;5094566;28;20036;-56
2023/03/09 01:22:55;;;;;;;15.98;11.48;;;2.20;99.90;;;;;;5094254;28;20032;-56
2023/03/09 01:25:20;;;;;;;16.30;11.45;;;2.20;99.90;;;;;;5094325;28;20040;-56
2023/03/09 01:27:46;;;;;;;17.70;12.68;;;2.20;99.90;;;;;;5094154;28;20036;-56
2023/03/09 01:30:12;;;;;;;18.92;12.00;;;2.10;99.90;;;;;;5094156;28;20044;-56
2023/03/09 01:32:38;;;;;;;20.02;11.55;;;2.10;99.90;;;;;;5093940;28;20477;-56
2023/03/09 01:35:05;;;;;;;20.23;11.88;;;2.10;99.90;;;;;;5094112;28;20081;-56
2023/03/09 01:37:31;;;;;;;17.20;12.35;;;2.00;99.90;;;;;;5094010;28;20078;-56
2023/03/09 01:39:57;;;;;;;16.83;11.30;;;2.00;99.90;;;;;;5093271;28;20067;-56
2023/03/09 01:42:22;;;;;;;18.90;11.82;;;2.00;99.90;;;;;;5093813;28;20058;-56
2023/03/09 01:45:19;;;;;;;17.67;11.63;;;2.00;99.90;;;;;;5094228;28;20043;-56
2023/03/09 01:47:48;;;;;;;16.83;10.85;;;1.90;99.90;;;;;;5093829;28;20417;-55
2023/03/09 01:50:15;;;;;;;17.02;12.10;;;1.90;99.90;;;;;;5093695;28;20040;-56
2023/03/09 01:52:44;;;;;;;18.95;11.75;;;1.90;99.90;;;;;;5093712;28;20139;-56
2023/03/09 01:55:12;;;;;;;18.33;11.48;;;1.90;99.90;;;;;;5092416;28;20040;-56
2023/03/09 01:57:47;;;;;;;19.88;12.43;;;1.90;99.90;;;;;;5092245;28;20385;-56
2023/03/09 02:00:18;;;;;;;16.23;11.68;;;1.80;99.90;;;;;;5093887;28;20140;-56
2023/03/09 02:02:48;;;;;;;16.80;11.93;;;1.80;99.90;;;;;;5093651;28;20115;-56
2023/03/09 02:05:19;;;;;;;19.02;12.13;;;1.80;99.90;;;;;;5093418;28;20040;-56
2023/03/09 02:07:48;;;;;;;14.93;10.70;;;1.80;99.90;;;;;;5093287;28;20474;-55
2023/03/09 02:10:28;;;;;;;16.98;10.98;;;1.70;99.90;;;;;;5093606;28;20043;-56
2023/03/09 02:12:58;;;;;;;18.02;11.35;;;1.70;99.90;;;;;;5093595;28;20085;-55
2023/03/09 02:15:24;;;;;;;17.38;12.02;;;1.70;99.90;;;;;;5091825;28;20051;-55
2023/03/09 02:17:51;;;;;;;18.70;11.25;;;1.70;99.90;;;;;;5092883;28;20056;-55
2023/03/09 02:20:36;;;;;;;15.45;11.15;;;1.70;99.90;;;;;;5093151;28;20473;-56
2023/03/09 02:23:07;;;;;;;18.88;11.52;;;1.70;99.90;;;;;;5093338;28;20448;-56
2023/03/09 02:25:48;;;;;;;17.80;11.23;;;1.70;99.90;;;;;;5093115;28;20039;-55
2023/03/09 02:28:14;;;;;;;17.52;11.60;;;1.60;99.90;;;;;;5092887;28;20040;-55
2023/03/09 02:30:42;;;;;;;18.67;11.85;;;1.70;99.90;;;;;;5093532;28;20394;-56
2023/03/09 02:33:25;;;;;;;15.65;11.57;;;1.70;99.90;;;;;;5093188;28;20040;-56
2023/03/09 02:35:55;;;;;;;15.73;10.73;;;1.70;99.90;;;;;;5092903;28;20067;-55
2023/03/09 02:38:21;;;;;;;18.70;11.15;;;1.70;99.90;;;;;;5092925;28;20059;-55
2023/03/09 02:40:48;;;;;;;16.38;11.13;;;1.80;99.90;;;;;;5092815;28;20043;-56
2023/03/09 02:43:18;;;;;;;16.55;11.70;;;1.70;99.90;;;;;;5091799;28;20048;-56
2023/03/09 02:45:45;;;;;;;15.98;11.07;;;1.70;99.90;;;;;;5092836;28;20047;-55
2023/03/09 02:48:11;;;;;;;17.92;11.93;;;1.80;99.90;;;;;;5092884;28;20484;-56
2023/03/09 02:50:36;;;;;;;15.02;11.20;;;1.80;99.90;;;;;;5092945;28;20079;-56
2023/03/09 02:53:02;;;;;;;20.30;12.23;;;1.70;99.90;;;;;;5091793;28;20468;-55
2023/03/09 02:55:28;;;;;;;20.63;12.52;;;1.70;99.90;;;;;;5092768;28;20047;-56
2023/03/09 02:57:54;;;;;;;22.52;13.20;;;1.80;99.90;;;;;;5092693;28;20075;-56
2023/03/09 03:00:21;;;;;;;17.63;12.35;;;1.80;99.90;;;;;;5092422;28;20060;-56
2023/03/09 03:02:47;;;;;;;21.30;12.57;;;1.80;99.90;;;;;;5092650;28;20111;-57
2023/03/09 03:05:12;;;;;;;23.25;13.23;;;1.80;99.90;;;;;;5092446;28;20189;-56
2023/03/09 03:07:38;;;;;;;21.13;13.35;;;1.90;99.90;;;;;;5092424;28;20040;-56
2023/03/09 03:10:04;;;;;;;23.92;14.52;;;1.90;99.90;;;;;;5092522;28;20047;-55
2023/03/09 03:12:30;;;;;;;24.02;14.10;;;1.90;99.90;;;;;;5092219;28;20036;-56
2023/03/09 03:14:55;;;;;;;23.35;14.23;;;1.90;99.90;;;;;;5092161;28;20036;-55
2023/03/09 03:17:21;;;;;;;23.25;14.05;;;1.90;99.90;;;;;;5092180;28;20051;-56
2023/03/09 03:19:46;;;;;;;24.40;14.98;;;1.90;99.90;;;;;;5092173;28;20401;-56
2023/03/09 03:22:12;;;;;;;26.77;13.93;;;1.90;99.90;;;;;;5092109;28;20043;-56
2023/03/09 03:24:39;;;;;;;25.75;15.13;;;1.90;99.90;;;;;;5090887;28;20043;-56
2023/03/09 03:27:05;;;;;;;25.58;15.65;;;1.90;99.90;;;;;;5092221;28;20093;-56
2023/03/09 03:29:31;;;;;;;24.70;15.05;;;1.80;99.90;;;;;;5092261;28;20040;-56
2023/03/09 03:31:57;;;;;;;26.17;15.10;;;1.90;99.90;;;;;;5092357;28;20048;-56
2023/03/09 03:34:22;;;;;;;24.30;15.40;;;1.80;99.90;;;;;;5092033;28;20071;-56
2023/03/09 03:36:48;;;;;;;25.70;15.18;;;1.80;99.90;;;;;;5092142;28;20040;-56
2023/03/09 03:39:14;;;;;;;27.50;15.55;;;1.80;99.90;;;;;;5092594;28;20476;-56
2023/03/09 03:41:39;;;;;;;24.77;15.38;;;1.80;99.90;;;;;;5091981;28;20036;-56
2023/03/09 03:44:05;;;;;;;23.60;15.27;;;1.80;99.90;;;;;;5091876;28;20047;-56
2023/03/09 03:46:30;;;;;;;24.52;15.27;;;1.80;99.90;;;;;;5091880;28;20040;-56
2023/03/09 03:48:56;;;;;;;26.00;16.05;;;1.80;99.90;;;;;;5091796;28;20044;-56
2023/03/09 03:51:23;;;;;;;23.92;14.93;;;1.80;99.90;;;;;;5091845;28;20105;-56
2023/03/09 03:53:48;;;;;;;23.27;14.52;;;1.80;99.90;;;;;;5092202;28;20040;-56
2023/03/09 03:56:14;;;;;;;24.60;14.57;;;1.80;99.90;;;;;;5091737;28;20501;-56
2023/03/09 03:58:40;;;;;;;24.83;14.70;;;1.80;99.90;;;;;;5091757;28;20148;-56
2023/03/09 04:01:06;;;;;;;22.25;13.95;;;1.80;99.90;;;;;;5091771;28;20040;-56
2023/03/09 04:03:32;;;;;;;23.92;15.45;;;1.80;99.90;;;;;;5093645;28;20058;-56
2023/03/09 04:05:58;;;;;;;27.63;16.42;;;1.80;99.90;;;;;;5095764;28;20040;-56
2023/03/09 04:08:23;;;;;;;26.95;17.48;;;1.80;99.90;;;;;;5095993;28;20047;-56
2023/03/09 04:10:49;;;;;;;27.80;17.10;;;1.70;99.90;;;;;;5095782;28;20188;-56
2023/03/09 04:13:15;;;;;;;28.52;17.58;;;1.70;99.90;;;;;;5095607;28;20078;-55
2023/03/09 04:15:41;;;;;;;28.33;16.50;;;1.70;99.90;;;;;;5095405;28;20089;-56
2023/03/09 04:18:07;;;;;;;30.13;17.55;;;1.80;99.90;;;;;;5095873;28;20048;-56
2023/03/09 04:20:34;;;;;;;32.00;18.40;;;1.70;99.90;;;;;;5095632;28;20093;-56
2023/03/09 04:23:00;;;;;;;31.25;19.30;;;1.70;99.90;;;;;;5095556;28;20626;-56
2023/03/09 04:25:26;;;;;;;28.58;18.52;;;1.70;99.90;;;;;;5095793;28;20040;-56
2023/03/09 04:27:52;;;;;;;30.35;18.42;;;1.70;99.90;;;;;;5095456;28;20097;-56
2023/03/09 04:30:20;;;;;;;32.45;18.13;;;1.70;99.90;;;;;;5095417;28;20048;-56
2023/03/09 04:32:47;;;;;;;29.15;17.95;;;1.70;99.90;;;;;;5095304;28;20082;-56
2023/03/09 04:35:13;;;;;;;28.65;17.50;;;1.70;99.90;;;;;;5095018;28;20058;-56
2023/03/09 04:37:39;;;;;;;27.73;17.83;;;1.80;99.90;;;;;;5095221;28;20461;-56
2023/03/09 04:40:05;;;;;;;26.33;16.88;;;1.70;99.90;;;;;;5095138;28;20133;-56
2023/03/09 04:42:31;;;;;;;26.98;17.65;;;1.70;99.90;;;;;;5094973;28;20075;-57
2023/03/09 04:44:57;;;;;;;28.75;17.30;;;1.70;99.90;;;;;;5095335;28;20036;-56
2023/03/09 04:47:22;;;;;;;31.38;17.33;;;1.70;99.90;;;;;;5094895;28;20430;-56
2023/03/09 04:49:48;;;;;;;28.27;17.17;;;1.60;99.90;;;;;;5095157;28;20044;-56
2023/03/09 04:52:14;;;;;;;28.25;16.75;;;1.60;99.90;;;;;;5095144;28;20093;-56
2023/03/09 04:54:40;;;;;;;26.20;16.67;;;1.60;99.90;;;;;;5094817;28;20040;-55
2023/03/09 04:57:06;;;;;;;24.08;15.85;;;1.60;99.90;;;;;;5095051;28;20036;-56
2023/03/09 04:59:32;;;;;;;26.17;15.52;;;1.60;99.90;;;;;;5094951;28;20555;-56
2023/03/09 05:01:58;;;;;;;26.58;16.38;;;1.70;99.90;;;;;;5095263;28;20350;-56
2023/03/09 05:04:23;;;;;;;26.35;16.42;;;1.70;99.90;;;;;;5094489;28;20039;-56
2023/03/09 05:06:49;;;;;;;25.15;15.63;;;1.60;99.90;;;;;;5094633;28;20122;-55
2023/03/09 05:09:15;;;;;;;30.52;17.80;;;1.60;99.90;;;;;;5094694;28;20042;-56
2023/03/09 05:11:42;;;;;;;25.77;15.02;;;1.60;99.90;;;;;;5094685;28;20039;-56
2023/03/09 05:14:08;;;;;;;26.00;16.38;;;1.60;99.90;;;;;;5093896;28;20500;-56
2023/03/09 05:16:34;;;;;;;23.85;15.07;;;1.60;99.90;;;;;;5094156;28;20048;-56
2023/03/09 05:19:00;;;;;;;23.92;15.43;;;1.60;99.90;;;;;;5094443;28;20067;-56
2023/03/09 05:21:25;;;;;;;26.90;16.27;;;1.60;99.90;;;;;;5094892;28;20119;-56
2023/03/09 05:23:51;;;;;;;24.33;15.02;;;1.60;99.90;;;;;;5094404;28;20115;-56
2023/03/09 05:26:17;;;;;;;23.00;15.27;;;1.60;99.90;;;;;;5093207;28;20473;-56
2023/03/09 05:28:42;;;;;;;22.38;14.05;;;1.60;99.90;;;;;;5094284;28;20039;-56
2023/03/09 05:31:10;;;;;;;24.80;15.40;;;1.60;99.90;;;;;;5094124;28;20036;-56
2023/03/09 05:33:36;;;;;;;26.48;16.05;;;1.60;99.90;;;;;;5094092;28;20101;-56
2023/03/09 05:36:13;;;;;;;24.73;15.70;;;1.60;99.90;;;;;;5094218;28;20040;-56
2023/03/09 05:38:38;;;;;;;23.25;15.10;;;1.60;99.90;;;;;;5094296;28;20093;-56
2023/03/09 05:41:05;;;;;;;25.30;15.82;;;1.60;99.90;;;;;;5099774;28;20040;-57
2023/03/09 05:43:31;;;;;;;25.73;15.73;;;1.60;99.90;;;;;;5114456;27;20074;-56
2023/03/09 05:45:56;;;;;;;25.65;15.75;;;1.60;99.90;;;;;;5114921;28;20106;-56
2023/03/09 05:48:22;;;;;;;24.58;16.55;;;1.60;99.90;;;;;;5114132;28;20121;-56
2023/03/09 05:50:48;;;;;;;29.10;16.08;;;1.50;99.90;;;;;;5114381;28;20035;-56
2023/03/09 05:53:14;;;;;;;24.50;15.55;;;1.50;99.90;;;;;;5113126;28;20054;-56
2023/03/09 05:55:39;;;;;;;24.83;15.73;;;1.50;99.90;;;;;;5112890;28;20040;-56
2023/03/09 05:58:05;;;;;;;24.85;15.02;;;1.60;99.90;;;;;;5113851;28;20044;-56
2023/03/09 06:00:31;;;;;;;27.02;15.20;;;1.60;99.90;;;;;;5113810;28;20035;-55
2023/03/09 06:02:56;;;;;;;25.88;15.00;;;1.60;99.90;;;;;;5114092;28;20382;-56
2023/03/09 06:05:22;;;;;;;23.75;15.00;;;1.60;99.90;;;;;;5114120;28;20039;-56
2023/03/09 06:07:47;;;;;;;29.27;15.45;;;1.60;99.90;;;;;;5110430;28;20081;-56
2023/03/09 06:10:13;;;;;;;26.00;15.18;;;1.60;99.90;;;;;;5093308;28;20542;-56
2023/03/09 06:12:39;;;;;;;22.50;14.05;;;1.70;99.90;;;;;;5093491;28;20065;-56
2023/03/09 06:15:05;;;;;;;21.13;14.18;;;1.70;99.90;;;;;;5093786;28;20040;-56
2023/03/09 06:17:31;;;;;;;24.58;15.15;;;1.70;99.90;;;;;;5093112;28;20044;-56
2023/03/09 06:19:56;;;;;;;25.70;15.27;;;1.70;99.90;;;;;;5093446;28;20089;-56
2023/03/09 06:22:22;;;;;;;24.00;15.57;;;1.70;99.90;;;;;;5093342;28;20036;-56
2023/03/09 06:24:47;;;;;;;20.67;13.57;;;1.80;99.90;;;;;;5093221;28;20485;-56
2023/03/09 06:27:13;;;;;;;22.73;14.38;;;1.80;99.90;;;;;;5091754;28;20048;-56
2023/03/09 06:29:39;;;;;;;22.85;14.43;;;1.70;99.90;;;;;;5093054;28;20082;-56
2023/03/09 06:32:05;;;;;;;22.55;14.20;;;1.80;99.90;;;;;;5092818;28;20043;-56
2023/03/09 06:34:31;;;;;;;21.92;14.50;;;1.80;99.90;;;;;;5092818;28;20036;-56
2023/03/09 06:36:56;;;;;;;21.42;13.90;;;1.80;99.90;;;;;;5093135;28;20126;-56
2023/03/09 06:39:22;;;;;;;26.10;13.77;;;1.80;99.90;;;;;;5092879;28;20436;-56
2023/03/09 06:41:47;;;;;;;21.70;14.00;;;1.70;99.90;;;;;;5093013;28;20032;-56
2023/03/09 06:44:13;;;;;;;22.73;14.07;;;1.80;99.90;;;;;;5092683;28;20036;-56
2023/03/09 06:46:39;;;;;;;25.73;14.98;;;1.80;99.90;;;;;;5092496;28;20097;-56
2023/03/09 06:49:04;;;;;;;22.52;14.65;;;1.70;99.90;;;;;;5092791;28;20043;-56
2023/03/09 06:51:30;;;;;;;20.63;13.52;;;1.70;99.90;;;;;;5092636;28;20040;-56
2023/03/09 06:53:57;;;;;;;24.50;14.60;;;1.80;99.90;;;;;;5092874;28;20443;-56
2023/03/09 06:56:26;;;;;;;21.00;13.02;;;1.80;99.90;;;;;;5092490;28;20097;-56
2023/03/09 06:58:54;;;;;;;22.70;15.15;;;1.80;99.90;;;;;;5092495;28;20036;-56
2023/03/09 07:01:20;;;;;;;20.67;13.48;;;1.80;99.90;;;;;;5092549;28;20039;-56
2023/03/09 07:03:46;;;;;;;22.60;14.32;;;1.80;99.90;;;;;;5092627;28;20401;-56
2023/03/09 07:06:12;;;;;;;24.92;14.43;;;1.80;99.90;;;;;;5092547;28;20036;-56
2023/03/09 07:08:37;;;;;;;23.08;14.48;;;1.80;99.90;;;;;;5098760;28;20036;-56
2023/03/09 07:11:03;;;;;;;19.95;13.52;;;1.70;99.90;;;;;;5111606;28;20047;-56
2023/03/09 07:13:29;;;;;;;21.20;13.63;;;1.80;99.90;;;;;;5112810;28;20043;-56
2023/03/09 07:15:55;;;;;;;23.00;14.65;;;1.90;99.90;;;;;;5112755;28;20172;-56
2023/03/09 07:18:21;;;;;;;22.67;14.32;;;1.90;99.90;;;;;;5112827;28;20265;-56
2023/03/09 07:20:47;;;;;;;21.15;14.32;;;1.90;99.90;;;;;;5112745;28;20470;-56
2023/03/09 07:23:13;;;;;;;20.08;13.15;;;1.90;99.90;;;;;;5112584;28;20059;-56
2023/03/09 07:25:38;;;;;;;19.73;14.00;;;2.00;99.90;;;;;;5112562;28;20436;-56
2023/03/09 07:28:06;;;;;;;20.70;13.13;;;2.20;99.90;;;;;;5112248;28;20032;-56
2023/03/09 07:30:31;;;;;;;20.75;13.98;;;2.40;99.90;;;;;;5112261;28;20492;-56
2023/03/09 07:32:59;;;;;;;20.67;13.38;;;2.50;99.90;;;;;;5112406;28;20078;-56
2023/03/09 07:35:25;;;;;;;20.10;13.05;;;2.60;99.90;;;;;;5111217;28;20039;-56
2023/03/09 07:37:50;;;;;;;19.25;12.63;;;2.60;99.90;;;;;;5111940;28;20035;-56
2023/03/09 07:40:16;;;;;;;20.20;13.13;;;2.70;99.90;;;;;;5112116;28;20118;-56
2023/03/09 07:42:42;;;;;;;18.02;12.07;;;2.60;99.90;;;;;;5112189;28;20028;-55
2023/03/09 07:45:09;;;;;;;18.70;13.20;;;2.60;99.90;;;;;;5108432;28;20100;-55
2023/03/09 07:47:35;;;;;;;19.35;12.98;;;2.60;99.90;;;;;;5112362;28;20108;-55
2023/03/09 07:50:01;;;;;;;19.95;13.25;;;2.70;99.90;;;;;;5110989;28;20485;-55
2023/03/09 07:52:30;;;;;;;18.83;12.98;;;2.70;99.90;;;;;;5112230;28;20039;-55
2023/03/09 07:55:00;;;;;;;19.08;12.93;;;2.90;99.90;;;;;;5112008;28;20374;-56
2023/03/09 07:57:31;;;;;;;16.45;12.02;;;3.10;99.90;;;;;;5112248;28;20032;-56
2023/03/09 07:59:56;;;;;;;17.40;11.88;;;3.20;99.90;;;;;;5112316;28;20067;-55
2023/03/09 08:02:22;;;;;;;16.75;11.95;;;3.30;99.90;;;;;;5112106;28;20070;-55
2023/03/09 08:04:48;;;;;;;21.20;12.40;;;3.40;99.90;;;;;;5112292;28;20118;-55
2023/03/09 08:07:14;;;;;;;17.25;11.73;;;3.50;99.90;;;;;;5107402;28;20418;-55
2023/03/09 08:09:40;;;;;;;15.55;10.73;;;3.50;99.90;;;;;;5104668;28;20043;-56
2023/03/09 08:12:06;;;;;;;22.83;11.07;;;3.60;99.90;;;;;;5109309;28;20040;-55
2023/03/09 08:14:31;;;;;;;14.88;10.27;;;3.70;99.90;;;;;;5091720;28;20040;-55
2023/03/09 08:16:57;;;;;;;16.08;11.15;;;3.70;99.90;;;;;;5091264;28;20093;-55
2023/03/09 08:19:23;;;;;;;15.07;10.48;;;3.70;99.90;;;;;;5091755;28;20044;-55
2023/03/09 08:21:49;;;;;;;15.55;9.68;;;3.80;99.90;;;;;;5091718;28;20039;-55
2023/03/09 08:24:16;;;;;;;16.08;11.65;;;3.80;99.90;;;;;;5091557;28;20040;-55
2023/03/09 08:26:42;;;;;;;14.82;10.15;;;4.00;99.90;;;;;;5091675;28;20395;-55
2023/03/09 08:29:08;;;;;;;14.10;10.20;;;4.00;99.90;;;;;;5105980;28;20115;-55
2023/03/09 08:31:35;;;;;;;14.43;9.65;;;4.10;99.90;;;;;;5112053;28;20111;-55
2023/03/09 08:34:01;;;;;;;13.80;9.35;;;4.30;99.90;;;;;;5098648;28;20051;-55
2023/03/09 08:36:27;;;;;;;14.13;9.48;;;4.60;99.90;;;;;;5091691;28;20085;-55
2023/03/09 08:38:53;;;;;;;11.68;8.88;;;4.70;99.90;;;;;;5091403;28;20402;-55
2023/03/09 08:41:19;;;;;;;12.75;8.55;;;4.90;99.90;;;;;;5091606;28;20040;-55
2023/03/09 08:43:45;;;;;;;12.65;9.35;;;5.20;99.90;;;;;;5091784;28;20036;-55
2023/03/09 08:46:11;;;;;;;11.85;8.77;;;5.40;99.90;;;;;;5091668;28;20055;-56
2023/03/09 08:48:37;;;;;;;10.13;7.85;;;5.40;99.90;;;;;;5091528;28;20032;-55
2023/03/09 08:51:05;;;;;;;10.43;8.60;;;5.40;99.90;;;;;;5093594;28;20118;-55
2023/03/09 08:53:32;;;;;;;12.60;9.17;;;5.50;99.90;;;;;;5094972;28;20044;-55
2023/03/09 08:55:58;;;;;;;11.60;8.60;;;5.70;99.90;;;;;;5095243;28;20051;-55
2023/03/09 08:58:24;;;;;;;11.27;8.57;;;5.80;99.90;;;;;;5095047;28;20032;-55
2023/03/09 09:00:49;;;;;;;14.65;8.68;;;5.70;99.90;;;;;;5097249;28;20039;-55
2023/03/09 09:03:15;;;;;;;12.98;8.40;;;5.60;99.90;;;;;;5115160;28;20032;-55
2023/03/09 09:05:41;;;;;;;11.07;8.27;;;5.60;99.90;;;;;;5114899;28;20497;-55
2023/03/09 09:08:06;;;;;;;13.15;8.60;;;5.60;99.90;;;;;;5094618;28;20427;-55
2023/03/09 09:10:34;;;;;;;12.13;8.82;;;5.60;99.90;;;;;;5111997;28;20370;-55
2023/03/09 09:12:59;;;;;;;12.98;8.13;;;5.70;99.90;;;;;;5095498;28;20085;-55
2023/03/09 09:15:25;;;;;;;10.05;7.82;;;5.40;99.90;;;;;;5094474;28;20036;-56
2023/03/09 09:17:53;;;;;;;10.73;7.95;;;5.50;99.90;;;;;;5094045;28;20045;-55
2023/03/09 09:20:19;;;;;;;9.85;8.18;;;5.80;99.90;;;;;;5094386;28;20545;-55
2023/03/09 09:22:45;;;;;;;9.95;7.45;;;5.90;99.90;;;;;;5094316;28;20474;-55
2023/03/09 09:25:11;;;;;;;11.02;7.85;;;6.00;99.90;;;;;;5094173;28;20482;-55
2023/03/09 09:27:37;;;;;;;9.88;7.75;;;6.00;99.90;;;;;;5095486;28;20046;-56
2023/03/09 09:30:06;;;;;;;9.30;7.22;;;6.10;99.90;;;;;;5114725;28;20040;-56
2023/03/09 09:32:31;;;;;;;;;;;6.00;99.90;;;;;;5113698;28;20564;-56
2023/03/09 09:34:58;;;;;;;10.40;7.40;;;6.20;99.90;;;;;;5109312;28;20014;-56
2023/03/09 09:37:24;;;;;;;11.15;8.02;;;6.30;99.90;;;;;;5093875;28;20044;-56
2023/03/09 09:39:51;;;;;;;13.07;8.30;;;6.40;99.90;;;;;;5103263;28;20057;-57
2023/03/09 09:42:38;;;;;;;10.45;7.72;;;6.20;99.90;;;;;;5114571;28;20366;-56
2023/03/09 09:45:24;;;;;;;10.00;7.72;;;5.90;99.90;;;;;;5112539;28;20047;-55
2023/03/09 09:47:50;;;;;;;9.23;7.13;;;5.80;99.90;;;;;;5114388;28;20143;-55
2023/03/09 09:50:16;;;;;;;9.80;7.78;;;5.70;99.90;;;;;;5114529;28;20051;-55
2023/03/09 09:53:24;;;;;;;11.93;8.15;;;5.70;99.90;;;;;;5113437;28;20040;-56
2023/03/09 09:55:51;;;;;;;12.60;7.30;;;5.70;99.90;;;;;;5014469;28;20200;-55
2023/03/09 09:58:41;;;;;;;10.27;7.43;;;5.90;99.90;;;;;;5031434;28;20043;-55
2023/03/09 10:01:42;;;;;;;11.20;7.82;;;5.90;99.90;;;;;;5030872;28;20045;-55
2023/03/09 10:04:17;;;;;;;9.57;7.68;;;6.00;99.90;;;;;;5031122;28;20038;-55
2023/03/09 10:06:46;;;;;;;11.85;7.65;;;6.20;99.90;;;;;;5031176;28;20072;-55
2023/03/09 10:09:25;;;;;;;10.38;7.05;;;6.30;99.90;;;;;;5030999;28;20045;-55
2023/03/09 10:11:54;;;;;;;9.45;6.60;;;6.50;99.90;;;;;;5013840;28;20145;-56
2023/03/09 10:14:33;;;;;;;11.63;7.22;;;6.80;99.90;;;;;;5030877;28;20050;-56
2023/03/09 10:17:17;;;;;;;8.43;6.85;;;6.80;99.90;;;;;;5030906;28;20096;-55
2023/03/09 10:19:46;;;;;;;8.65;6.72;;;7.00;99.90;;;;;;5030928;28;20200;-55
2023/03/09 10:22:21;;;;;;;7.47;5.47;;;7.20;99.90;;;;;;5030761;28;20402;-56
2023/03/09 10:24:51;;;;;;;8.15;5.15;;;7.40;99.90;;;;;;5030889;28;20045;-56
2023/03/09 10:27:51;;;;;;;7.07;5.57;;;7.50;99.90;;;;;;5096341;28;20054;-55
2023/03/09 10:30:32;;;;;;;6.10;4.57;;;7.60;99.90;;;;;;5112120;28;20051;-55
2023/03/09 10:33:05;;;;;;;6.15;4.65;;;7.20;99.90;;;;;;5111707;28;20463;-56
2023/03/09 10:35:34;;;;;;;5.32;4.38;;;7.10;99.90;;;;;;5113184;28;20040;-55
2023/03/09 10:37:59;;;;;;;8.85;4.35;;;7.00;99.90;;;;;;5113505;28;20031;-56
2023/03/09 10:40:35;;;;;;;7.25;5.00;;;6.90;99.90;;;;;;5111449;28;20508;-55
2023/03/09 10:43:01;;;;;;;6.10;4.47;;;6.70;99.90;;;;;;5113111;28;20396;-55
2023/03/09 10:45:29;;;;;;;5.38;4.80;;;6.80;99.90;;;;;;5104789;28;20043;-55
2023/03/09 10:47:56;;;;;;;6.07;4.87;;;6.70;99.90;;;;;;5113072;28;20044;-55
2023/03/09 10:50:25;;;;;;;5.72;4.85;;;6.60;99.90;;;;;;5113022;27;20773;-55
2023/03/09 10:52:53;;;;;;;7.07;5.07;;;6.30;99.90;;;;;;5113064;28;20080;-55
2023/03/09 10:55:42;;;;;;;6.80;5.38;;;6.30;99.90;;;;;;5113014;27;20056;-55
2023/03/09 10:58:27;;;;;;;8.35;5.32;;;6.30;99.90;;;;;;5113033;28;20467;-55
2023/03/09 11:01:02;;;;;;;7.80;5.82;;;6.20;99.90;;;;;;5113116;28;20036;-55
2023/03/09 11:03:32;;;;;;;7.50;5.43;;;6.30;99.90;;;;;;5112679;28;20473;-55
2023/03/09 11:06:21;;;;;;;8.40;5.35;;;6.30;99.90;;;;;;5112912;28;20035;-55
2023/03/09 11:08:55;;;;;;;5.00;4.30;;;6.30;99.90;;;;;;5108045;28;20101;-55
2023/03/09 11:11:24;;;;;;;6.78;4.65;;;6.10;99.90;;;;;;5092456;28;20036;-55
2023/03/09 11:13:50;;;;;;;6.75;5.38;;;6.00;99.90;;;;;;5090187;28;20127;-55
2023/03/09 11:16:21;;;;;;;6.93;4.82;;;6.00;99.90;;;;;;5092427;28;20123;-55
2023/03/09 11:18:48;;;;;;;6.30;4.82;;;6.00;99.90;;;;;;5092524;28;20101;-55
2023/03/09 11:21:21;;;;;;;6.32;5.20;;;6.20;99.90;;;;;;5092326;28;20035;-56
2023/03/09 11:23:51;;;;;;;6.85;5.63;;;6.20;99.90;;;;;;5090884;28;20044;-55
2023/03/09 11:26:16;;;;;;;6.65;5.88;;;6.00;99.90;;;;;;5092242;28;20047;-55
2023/03/09 11:28:57;;;;;;;8.23;5.80;;;6.00;99.90;;;;;;5091929;28;20478;-55
2023/03/09 11:31:28;;;;;;;7.07;5.95;;;6.00;99.90;;;;;;5092261;28;20132;-55
2023/03/09 11:33:57;;;;;;;12.25;6.50;;;5.90;99.90;;;;;;5091758;28;20047;-55
2023/03/09 11:36:44;;;;;;;7.97;5.45;;;6.00;99.90;;;;;;5092147;28;20386;-56
2023/03/09 11:39:39;;;;;;;7.85;5.50;;;6.10;99.90;;;;;;5090213;28;20397;-55
2023/03/09 11:42:12;;;;;;;6.43;5.18;;;6.20;99.90;;;;;;5009830;28;20065;-56
2023/03/09 11:44:41;;;;;;;6.60;5.40;;;6.20;99.90;;;;;;5009622;28;20170;-55
2023/03/09 11:47:28;;;;;;;6.95;5.45;;;6.10;99.90;;;;;;5010040;28;20400;-56
2023/03/09 11:50:01;;;;;;;7.10;5.68;;;6.00;99.90;;;;;;5009941;28;20065;-56
2023/03/09 11:52:33;;;;;;;6.47;5.28;;;6.00;99.90;;;;;;5009965;28;20185;-56
2023/03/09 11:55:05;;;;;;;7.85;5.28;;;6.00;99.90;;;;;;5009738;28;20124;-56
2023/03/09 11:57:35;;;;;;;7.95;6.43;;;6.10;99.90;;;;;;5009650;28;20134;-55
2023/03/09 12:00:07;;;;;;;7.93;5.93;;;6.00;99.90;;;;;;4992989;28;20404;-56
2023/03/09 12:02:50;;;;;;;8.38;5.90;;;6.10;99.90;;;;;;5010246;28;20073;-55
2023/03/09 12:05:16;;;;;;;6.78;5.75;;;6.00;99.90;;;;;;5009491;28;20391;-55
2023/03/09 12:07:50;;;;;;;7.80;6.05;;;5.90;99.90;;;;;;5009713;28;20514;-55
2023/03/09 12:10:29;;;;;;;8.02;5.93;;;6.00;99.90;;;;;;5009673;28;20042;-55
2023/03/09 12:13:04;;;;;;;7.85;6.15;;;5.90;99.90;;;;;;5009665;28;20050;-55
2023/03/09 12:15:35;;;;;;;7.50;5.93;;;6.00;99.90;;;;;;5009707;28;20054;-55
2023/03/09 12:18:05;;;;;;;8.43;5.97;;;5.90;99.90;;;;;;5010770;28;20093;-55
2023/03/09 12:20:33;;;;;;;;;;;5.80;99.90;;;;;;5072085;28;20343;-56
2023/03/09 12:22:59;;;;;;;6.82;5.43;;;5.80;99.90;;;;;;5070190;28;19920;-55
2023/03/09 12:25:26;;;;;;;8.95;5.70;;;5.70;99.90;;;;;;5074354;28;20386;-55
2023/03/09 12:27:59;;;;;;;6.55;5.53;;;5.60;99.90;;;;;;5075155;28;20040;-55
2023/03/09 12:30:59;;;;;;;8.02;5.85;;;5.70;99.90;;;;;;5074942;28;20393;-55
2023/03/09 12:33:43;;;;;;;7.28;5.05;;;5.70;99.90;;;;;;5075207;28;20046;-55
2023/03/09 12:36:28;;;;;;;6.70;5.32;;;5.70;99.90;;;;;;5075242;28;20164;-55
2023/03/09 12:39:21;;;;;;;7.38;4.95;;;5.60;99.90;;;;;;5075221;28;20036;-55
2023/03/09 12:42:07;;;;;;;7.78;5.78;;;5.60;99.90;;;;;;5074971;28;20032;-55
2023/03/09 12:44:47;;;;;;;8.00;5.15;;;5.50;99.90;;;;;;5090800;28;20576;-55
2023/03/09 12:47:22;;;;;;;6.88;5.07;;;5.50;99.90;;;;;;5074983;28;20029;-55
2023/03/09 12:49:50;;;;;;;7.38;5.20;;;5.60;99.90;;;;;;5075043;28;20493;-55
2023/03/09 12:52:22;;;;;;;5.57;4.97;;;5.60;99.90;;;;;;5073844;28;20044;-55